Time;durP1;ratioP1;P1;durP2;ratioP2;P2;SDS_P1;SDS_P2;PMS_P1;PMS_P2;Temp;Humidity;BMP_temperature;BMP_pressure;BME280_temperature;BME280_humidity;BME280_pressure;Samples;Min_cycle;Max_cycle;Signal;HPM_P1;HPM_P2
2020/12/16 00:01:39;;;;;;;29.13;17.10;;;3.60;99.90;;;;;;5015513;28;20034;-85
2020/12/16 00:04:05;;;;;;;39.20;20.60;;;3.60;99.90;;;;;;5016661;28;20140;-84
2020/12/16 00:06:30;;;;;;;43.92;25.25;;;3.60;99.90;;;;;;5015533;28;20025;-84
2020/12/16 00:08:56;;;;;;;48.65;27.05;;;3.60;99.90;;;;;;5016212;28;20037;-85
2020/12/16 00:11:22;;;;;;;59.53;30.35;;;3.60;99.90;;;;;;5016296;28;20057;-85
2020/12/16 00:13:48;;;;;;;51.92;27.92;;;3.60;99.90;;;;;;5029793;28;20078;-84
2020/12/16 00:16:13;;;;;;;52.53;26.88;;;3.60;99.90;;;;;;5030179;28;20050;-85
2020/12/16 00:18:39;;;;;;;32.38;18.67;;;3.60;99.90;;;;;;5011369;28;20037;-85
2020/12/16 00:21:05;;;;;;;28.13;17.20;;;3.60;99.90;;;;;;5020829;28;20030;-85
2020/12/16 00:23:30;;;;;;;23.60;14.15;;;3.60;99.90;;;;;;4998305;28;20030;-85
2020/12/16 00:25:56;;;;;;;20.67;12.38;;;3.60;99.90;;;;;;4997506;28;20034;-85
2020/12/16 00:28:23;;;;;;;23.52;14.20;;;3.60;99.90;;;;;;5014851;28;20030;-85
2020/12/16 00:30:48;;;;;;;20.35;12.25;;;3.60;99.90;;;;;;5015035;28;20494;-85
2020/12/16 00:33:18;;;;;;;15.60;10.23;;;3.50;99.90;;;;;;4997133;28;20033;-85
2020/12/16 00:35:47;;;;;;;17.40;11.00;;;3.50;99.90;;;;;;5015163;28;20033;-85
2020/12/16 00:38:13;;;;;;;17.75;11.23;;;3.50;99.90;;;;;;5015422;28;20030;-85
2020/12/16 00:40:39;;;;;;;17.98;10.75;;;3.50;99.90;;;;;;4998416;28;20419;-85
2020/12/16 00:43:05;;;;;;;17.60;10.77;;;3.50;99.90;;;;;;5016880;28;20030;-85
2020/12/16 00:45:30;;;;;;;20.70;12.68;;;3.50;99.90;;;;;;4998989;28;20054;-85
2020/12/16 00:47:57;;;;;;;20.63;12.38;;;3.50;99.90;;;;;;5000012;28;20512;-85
2020/12/16 00:50:23;;;;;;;21.13;12.80;;;3.50;99.90;;;;;;5017354;28;20373;-84
2020/12/16 00:52:49;;;;;;;26.65;14.48;;;3.50;99.90;;;;;;5015026;28;20083;-86
2020/12/16 00:55:15;;;;;;;24.27;13.63;;;3.50;99.90;;;;;;5014502;28;20018;-85
2020/12/16 00:57:40;;;;;;;22.95;12.85;;;3.50;99.90;;;;;;4997175;28;20380;-85
2020/12/16 01:00:08;;;;;;;39.25;19.23;;;3.50;99.90;;;;;;4996739;28;20460;-85
2020/12/16 01:02:37;;;;;;;30.13;15.93;;;3.50;99.90;;;;;;5014176;28;20076;-84
2020/12/16 01:05:03;;;;;;;21.50;13.15;;;3.50;99.90;;;;;;5014276;28;20084;-84
2020/12/16 01:07:29;;;;;;;25.63;13.60;;;3.50;99.90;;;;;;5014781;28;20030;-84
2020/12/16 01:09:55;;;;;;;31.63;17.05;;;3.50;99.90;;;;;;5014058;28;20026;-84
2020/12/16 01:12:20;;;;;;;35.90;19.23;;;3.50;99.90;;;;;;5014339;28;20030;-85
2020/12/16 01:14:46;;;;;;;34.63;17.38;;;3.40;99.90;;;;;;5014176;28;20022;-84
2020/12/16 01:17:12;;;;;;;30.20;16.42;;;3.50;99.90;;;;;;5014301;28;20029;-83
2020/12/16 01:19:38;;;;;;;26.10;15.23;;;3.50;99.90;;;;;;4996451;28;20433;-84
2020/12/16 01:22:03;;;;;;;25.77;13.95;;;3.50;99.90;;;;;;5014036;28;20021;-84
2020/12/16 01:24:29;;;;;;;33.20;18.35;;;3.50;99.90;;;;;;4996184;28;20042;-84
2020/12/16 01:26:55;;;;;;;27.90;14.93;;;3.50;99.90;;;;;;5015531;28;20057;-84
2020/12/16 01:29:21;;;;;;;25.35;15.00;;;3.50;99.90;;;;;;5017503;28;20025;-84
2020/12/16 01:31:48;;;;;;;23.20;12.63;;;3.50;99.90;;;;;;5017972;28;20061;-84
2020/12/16 01:34:19;;;;;;;26.58;16.20;;;3.50;99.90;;;;;;5018750;28;20022;-84
2020/12/16 01:36:47;;;;;;;26.70;15.73;;;3.50;99.90;;;;;;5019230;28;20018;-83
2020/12/16 01:39:14;;;;;;;25.15;15.40;;;3.40;99.90;;;;;;5017551;28;20018;-84
2020/12/16 01:41:41;;;;;;;25.63;14.70;;;3.40;99.90;;;;;;5018331;28;20049;-83
2020/12/16 01:44:15;;;;;;;21.05;13.13;;;3.40;99.90;;;;;;5018282;28;20030;-83
2020/12/16 01:47:00;;;;;;;20.90;12.70;;;3.50;99.90;;;;;;5032449;28;20069;-84
2020/12/16 01:49:26;;;;;;;20.00;12.70;;;3.40;99.90;;;;;;5032566;28;20360;-84
2020/12/16 01:51:58;;;;;;;18.20;11.05;;;3.40;99.90;;;;;;5028826;28;20030;-85
2020/12/16 01:54:24;;;;;;;18.30;10.65;;;3.40;99.90;;;;;;5023945;28;20029;-84
2020/12/16 01:56:53;;;;;;;18.50;11.65;;;3.40;99.90;;;;;;5017906;28;20026;-85
2020/12/16 01:59:20;;;;;;;20.00;12.32;;;3.40;99.90;;;;;;5006477;28;20488;-84
2020/12/16 02:01:53;;;;;;;23.45;12.68;;;3.40;99.90;;;;;;5022170;28;20092;-84
2020/12/16 02:04:22;;;;;;;19.80;12.52;;;3.40;99.90;;;;;;5018178;28;20029;-84
2020/12/16 02:06:50;;;;;;;26.33;12.88;;;3.40;99.90;;;;;;5017445;28;20029;-85
2020/12/16 02:09:16;;;;;;;18.42;11.50;;;3.40;99.90;;;;;;5017346;28;20030;-85
2020/12/16 02:11:42;;;;;;;23.83;13.02;;;3.40;99.90;;;;;;5017279;28;20034;-85
2020/12/16 02:14:09;;;;;;;27.33;16.35;;;3.40;99.90;;;;;;5017004;28;20543;-86
2020/12/16 02:16:37;;;;;;;34.40;17.85;;;3.40;99.90;;;;;;5017018;28;20022;-84
2020/12/16 02:19:07;;;;;;;35.67;17.85;;;3.40;99.90;;;;;;5018526;28;20030;-85
2020/12/16 02:21:35;;;;;;;26.67;14.55;;;3.40;99.90;;;;;;4999260;28;20486;-85
2020/12/16 02:24:06;;;;;;;28.95;14.98;;;3.40;99.90;;;;;;5001017;28;20026;-85
2020/12/16 02:26:37;;;;;;;33.30;16.40;;;3.40;99.90;;;;;;5016746;28;20052;-85
2020/12/16 02:29:04;;;;;;;35.97;17.67;;;3.40;99.90;;;;;;5017587;28;20053;-85
2020/12/16 02:31:33;;;;;;;40.60;20.88;;;3.40;99.90;;;;;;5017347;28;20021;-85
2020/12/16 02:34:00;;;;;;;48.13;22.00;;;3.40;99.90;;;;;;5017597;28;20094;-86
2020/12/16 02:36:25;;;;;;;56.13;23.92;;;3.40;99.90;;;;;;5018280;28;20026;-86
2020/12/16 02:38:51;;;;;;;44.50;20.55;;;3.40;99.90;;;;;;5000429;28;20028;-84
2020/12/16 02:41:18;;;;;;;37.70;18.83;;;3.40;99.90;;;;;;5000013;28;20141;-84
2020/12/16 02:43:44;;;;;;;32.35;18.08;;;3.40;99.90;;;;;;5018200;28;20492;-84
2020/12/16 02:46:10;;;;;;;35.88;19.48;;;3.40;99.90;;;;;;4999175;28;20105;-86
2020/12/16 02:48:38;;;;;;;34.33;17.52;;;3.40;99.90;;;;;;5018289;28;20480;-86
2020/12/16 02:51:04;;;;;;;32.83;16.80;;;3.30;99.90;;;;;;5017038;28;20026;-86
2020/12/16 02:53:29;;;;;;;27.15;15.07;;;3.30;99.90;;;;;;5017067;28;20543;-85
2020/12/16 02:55:55;;;;;;;22.92;12.93;;;3.40;99.90;;;;;;5017779;28;20871;-86
2020/12/16 02:58:23;;;;;;;21.25;12.38;;;3.40;99.90;;;;;;5018570;28;20022;-85
2020/12/16 03:00:49;;;;;;;19.67;12.27;;;3.30;99.90;;;;;;5000489;28;20014;-86
2020/12/16 03:03:17;;;;;;;23.30;13.25;;;3.30;99.90;;;;;;5025857;28;20081;-85
2020/12/16 03:05:46;;;;;;;23.40;13.98;;;3.40;99.90;;;;;;5001899;28;20108;-82
2020/12/16 03:08:14;;;;;;;24.15;13.90;;;3.40;99.90;;;;;;4999552;28;20033;-85
2020/12/16 03:10:40;;;;;;;27.65;13.70;;;3.30;99.90;;;;;;5000857;28;20030;-84
2020/12/16 03:13:06;;;;;;;22.05;12.48;;;3.40;99.90;;;;;;5017860;28;20156;-85
2020/12/16 03:15:32;;;;;;;19.23;12.10;;;3.40;99.90;;;;;;5000175;28;20025;-85
2020/12/16 03:17:58;;;;;;;20.25;11.65;;;3.30;99.90;;;;;;5017085;28;20380;-85
2020/12/16 03:20:24;;;;;;;19.10;11.27;;;3.40;99.90;;;;;;4999721;28;20058;-85
2020/12/16 03:22:57;;;;;;;19.08;11.27;;;3.30;99.90;;;;;;5001958;28;20048;-86
2020/12/16 03:25:23;;;;;;;17.35;11.20;;;3.30;99.90;;;;;;5016789;28;20026;-85
2020/12/16 03:27:49;;;;;;;19.17;12.60;;;3.30;99.90;;;;;;5016590;28;20088;-86
2020/12/16 03:30:14;;;;;;;23.85;13.40;;;3.30;99.90;;;;;;5016931;28;20043;-85
2020/12/16 03:32:40;;;;;;;21.10;12.85;;;3.30;99.90;;;;;;5017019;28;20022;-83
2020/12/16 03:35:06;;;;;;;20.42;13.07;;;3.20;99.90;;;;;;5015997;28;20457;-84
2020/12/16 03:37:31;;;;;;;23.08;13.93;;;3.20;99.90;;;;;;5015679;28;20037;-85
2020/12/16 03:39:57;;;;;;;33.88;19.08;;;3.10;99.90;;;;;;5016005;28;20372;-85
2020/12/16 03:42:23;;;;;;;33.60;18.10;;;3.10;99.90;;;;;;5015667;28;20026;-85
2020/12/16 03:44:49;;;;;;;29.17;16.60;;;3.10;99.90;;;;;;5015713;28;20029;-85
2020/12/16 03:47:15;;;;;;;35.97;19.38;;;3.20;99.90;;;;;;5015822;28;20042;-85
2020/12/16 03:49:41;;;;;;;31.90;19.05;;;3.20;99.90;;;;;;5016615;28;20056;-86
2020/12/16 03:52:07;;;;;;;35.35;19.35;;;3.20;99.90;;;;;;5016764;28;20465;-86
2020/12/16 03:54:32;;;;;;;22.52;13.70;;;3.20;99.90;;;;;;4999353;28;20030;-87
2020/12/16 03:56:58;;;;;;;20.63;12.55;;;3.20;99.90;;;;;;5017019;28;20033;-87
2020/12/16 03:59:23;;;;;;;18.65;10.75;;;3.20;99.90;;;;;;4998983;28;20424;-86
2020/12/16 04:01:51;;;;;;;19.75;12.02;;;3.10;99.90;;;;;;5017253;28;20037;-86
2020/12/16 04:04:17;;;;;;;17.88;11.77;;;3.00;99.90;;;;;;4999961;28;20037;-88
2020/12/16 04:06:43;;;;;;;18.88;11.57;;;3.00;99.90;;;;;;5018208;28;20033;-85
2020/12/16 04:09:09;;;;;;;20.52;12.75;;;3.00;99.90;;;;;;4999850;28;20038;-85
2020/12/16 04:11:35;;;;;;;20.60;13.02;;;3.00;99.90;;;;;;5018195;28;20034;-87
2020/12/16 04:14:00;;;;;;;24.25;13.35;;;3.00;99.90;;;;;;5015849;28;20088;-86
2020/12/16 04:16:26;;;;;;;23.98;13.18;;;3.00;99.90;;;;;;5014724;28;20049;-86
2020/12/16 04:18:57;;;;;;;24.40;13.43;;;3.00;99.90;;;;;;5015466;28;20032;-82
2020/12/16 04:21:23;;;;;;;22.33;12.98;;;3.10;99.90;;;;;;5021172;28;20061;-86
2020/12/16 04:23:49;;;;;;;23.70;13.05;;;3.10;99.90;;;;;;5015392;28;20194;-87
2020/12/16 04:26:14;;;;;;;23.55;13.20;;;3.10;99.90;;;;;;5013884;28;20088;-87
2020/12/16 04:28:40;;;;;;;23.52;14.00;;;3.10;99.90;;;;;;4996629;28;20034;-86
2020/12/16 04:31:10;;;;;;;25.10;14.35;;;3.10;99.90;;;;;;4997051;28;20512;-86
2020/12/16 04:33:35;;;;;;;25.20;15.65;;;3.10;99.90;;;;;;5015182;28;20048;-86
2020/12/16 04:36:01;;;;;;;44.97;26.55;;;3.10;99.90;;;;;;5014945;28;20778;-86
2020/12/16 04:38:27;;;;;;;30.38;18.20;;;3.10;99.90;;;;;;4996526;28;20491;-85
2020/12/16 04:40:55;;;;;;;21.45;12.52;;;3.10;99.90;;;;;;5014351;28;20026;-87
2020/12/16 04:43:22;;;;;;;17.13;10.32;;;3.10;99.90;;;;;;4996325;28;20033;-86
2020/12/16 04:45:50;;;;;;;20.58;11.38;;;2.90;99.90;;;;;;5021241;28;20105;-86
2020/12/16 04:48:16;;;;;;;20.60;11.98;;;2.70;99.90;;;;;;5014306;28;20030;-86
2020/12/16 04:50:44;;;;;;;17.60;11.20;;;2.60;99.90;;;;;;5014428;28;20022;-85
2020/12/16 04:53:12;;;;;;;17.92;11.25;;;2.60;99.90;;;;;;4996467;28;20034;-85
2020/12/16 04:55:39;;;;;;;16.23;10.60;;;2.60;99.90;;;;;;5014045;28;20037;-86
2020/12/16 04:58:06;;;;;;;17.20;10.15;;;2.60;99.90;;;;;;4996457;28;20029;-85
2020/12/16 05:00:33;;;;;;;18.08;9.82;;;2.60;99.90;;;;;;5013646;28;20022;-86
2020/12/16 05:03:01;;;;;;;18.75;10.00;;;2.60;99.90;;;;;;5019086;28;20068;-86
2020/12/16 05:05:28;;;;;;;16.77;9.43;;;2.50;99.90;;;;;;5017487;28;20018;-85
2020/12/16 05:07:54;;;;;;;22.33;10.85;;;2.40;99.90;;;;;;4999820;28;20029;-85
2020/12/16 05:10:31;;;;;;;17.73;10.13;;;2.40;99.90;;;;;;5017374;28;20030;-84
2020/12/16 05:13:08;;;;;;;21.58;12.23;;;2.40;99.90;;;;;;5016816;28;20097;-83
2020/12/16 05:15:38;;;;;;;15.90;9.90;;;2.30;99.90;;;;;;5016858;28;20460;-84
2020/12/16 05:18:06;;;;;;;19.25;11.10;;;2.30;99.90;;;;;;5017280;28;20061;-85
2020/12/16 05:20:33;;;;;;;20.00;10.98;;;2.30;99.90;;;;;;5017011;28;20018;-84
2020/12/16 05:23:00;;;;;;;15.65;9.93;;;2.20;99.90;;;;;;5016709;28;20021;-85
2020/12/16 05:25:27;;;;;;;20.35;10.75;;;2.30;99.90;;;;;;5016891;28;20023;-84
2020/12/16 05:27:52;;;;;;;20.25;11.50;;;2.30;99.90;;;;;;5017699;28;20113;-85
2020/12/16 05:30:18;;;;;;;23.25;14.40;;;2.40;99.90;;;;;;5018538;28;20057;-85
2020/12/16 05:32:44;;;;;;;22.08;12.73;;;2.40;99.90;;;;;;5018788;28;20018;-84
2020/12/16 05:35:19;;;;;;;28.75;17.33;;;2.50;99.90;;;;;;5001422;28;20049;-86
2020/12/16 05:37:45;;;;;;;23.45;14.35;;;2.50;99.90;;;;;;5018814;28;20026;-85
2020/12/16 05:40:13;;;;;;;26.05;15.45;;;2.60;99.90;;;;;;5018009;28;20469;-87
2020/12/16 05:42:40;;;;;;;32.55;19.17;;;2.70;99.90;;;;;;5000686;28;20037;-85
2020/12/16 05:45:13;;;;;;;29.42;18.08;;;2.70;99.90;;;;;;5024866;28;20022;-85
2020/12/16 05:47:41;;;;;;;23.30;13.10;;;2.70;99.90;;;;;;5017322;28;20038;-86
2020/12/16 05:50:18;;;;;;;28.75;15.15;;;2.80;99.90;;;;;;5019569;28;20094;-85
2020/12/16 05:52:45;;;;;;;27.70;14.77;;;2.80;99.90;;;;;;5017595;28;20026;-85
2020/12/16 05:55:11;;;;;;;29.20;17.38;;;2.70;99.90;;;;;;5017607;28;20018;-84
2020/12/16 05:57:37;;;;;;;20.13;11.63;;;2.70;99.90;;;;;;4999918;28;20061;-87
2020/12/16 06:00:10;;;;;;;19.90;10.68;;;2.60;99.90;;;;;;5017575;28;20022;-85
2020/12/16 06:02:39;;;;;;;22.02;12.60;;;2.60;99.90;;;;;;5015810;28;20032;-85
2020/12/16 06:05:13;;;;;;;22.20;12.57;;;2.60;99.90;;;;;;5015533;28;20022;-86
2020/12/16 06:07:40;;;;;;;24.80;13.07;;;2.60;99.90;;;;;;5015224;28;20030;-85
2020/12/16 06:10:08;;;;;;;29.27;15.65;;;2.60;99.90;;;;;;5016123;28;20538;-86
2020/12/16 06:12:41;;;;;;;23.50;14.00;;;2.70;99.90;;;;;;5014430;28;20381;-86
2020/12/16 06:15:14;;;;;;;27.20;14.57;;;2.70;99.90;;;;;;5014827;28;20121;-86
2020/12/16 06:17:42;;;;;;;29.02;16.90;;;2.70;99.90;;;;;;5017279;28;20038;-86
2020/12/16 06:20:15;;;;;;;28.52;15.55;;;2.60;99.90;;;;;;5015558;28;20038;-86
2020/12/16 06:22:43;;;;;;;27.55;14.13;;;2.70;99.90;;;;;;4998882;28;20529;-86
2020/12/16 06:25:11;;;;;;;28.90;15.50;;;2.70;99.90;;;;;;5015415;28;20022;-88
2020/12/16 06:27:57;;;;;;;28.95;15.65;;;2.60;99.90;;;;;;5015363;28;20033;-87
2020/12/16 06:30:28;;;;;;;31.23;16.55;;;2.60;99.90;;;;;;5014643;28;20105;-85
2020/12/16 06:33:15;;;;;;;26.95;13.80;;;2.50;99.90;;;;;;5014986;28;20044;-86
2020/12/16 06:35:41;;;;;;;24.70;13.70;;;2.50;99.90;;;;;;5015325;28;20026;-86
2020/12/16 06:38:21;;;;;;;24.58;13.40;;;2.40;99.90;;;;;;5015380;28;20037;-87
2020/12/16 06:40:49;;;;;;;23.05;12.68;;;2.40;99.90;;;;;;4997338;28;20047;-86
2020/12/16 06:43:35;;;;;;;28.13;15.05;;;2.40;99.90;;;;;;5015463;28;20033;-84
2020/12/16 06:46:03;;;;;;;28.17;15.68;;;2.30;99.90;;;;;;5014995;28;20046;-81
2020/12/16 06:48:39;;;;;;;28.60;14.75;;;2.40;99.90;;;;;;5015009;28;20026;-83
2020/12/16 06:51:21;;;;;;;31.10;16.48;;;2.40;99.90;;;;;;5015453;28;20072;-83
2020/12/16 06:53:49;;;;;;;28.77;15.02;;;2.30;99.90;;;;;;5014693;28;20384;-83
2020/12/16 06:56:19;;;;;;;26.42;15.40;;;2.40;99.90;;;;;;4996923;28;20464;-83
2020/12/16 06:58:46;;;;;;;31.38;17.45;;;2.40;99.90;;;;;;5014767;28;20026;-82
2020/12/16 07:01:13;;;;;;;31.95;17.73;;;2.50;99.90;;;;;;5014395;28;20022;-82
2020/12/16 07:03:39;;;;;;;33.63;18.00;;;2.60;99.90;;;;;;5014289;28;20041;-82
2020/12/16 07:06:10;;;;;;;29.75;17.10;;;2.60;99.90;;;;;;5014067;28;20105;-82
2020/12/16 07:08:37;;;;;;;26.23;16.42;;;2.70;99.90;;;;;;5013454;28;20034;-81
2020/12/16 07:11:03;;;;;;;31.00;16.65;;;2.70;99.90;;;;;;4996312;28;20026;-82
2020/12/16 07:13:34;;;;;;;29.50;16.15;;;2.80;99.90;;;;;;5014115;28;20080;-83
2020/12/16 07:16:10;;;;;;;31.38;17.55;;;2.80;99.90;;;;;;5013613;28;20105;-82
2020/12/16 07:18:44;;;;;;;32.08;18.17;;;2.90;99.90;;;;;;5015075;28;20084;-84
2020/12/16 07:21:16;;;;;;;33.30;18.85;;;2.90;99.90;;;;;;5013641;28;20041;-83
2020/12/16 07:23:57;;;;;;;30.20;17.45;;;2.90;99.90;;;;;;4995033;28;20034;-83
2020/12/16 07:26:28;;;;;;;29.90;16.80;;;2.90;99.90;;;;;;4996068;28;20037;-82
2020/12/16 07:28:55;;;;;;;33.13;19.10;;;3.00;99.90;;;;;;5014120;28;20026;-82
2020/12/16 07:31:22;;;;;;;38.80;19.08;;;3.00;99.90;;;;;;4986437;28;20499;-82
2020/12/16 07:33:48;;;;;;;38.97;21.17;;;3.00;99.90;;;;;;5010563;28;20018;-83
2020/12/16 07:36:22;;;;;;;42.88;22.05;;;3.00;99.90;;;;;;5013388;28;20507;-83
2020/12/16 07:38:53;;;;;;;37.10;20.25;;;3.00;99.90;;;;;;4996348;28;20096;-83
2020/12/16 07:41:29;;;;;;;35.42;19.75;;;2.90;99.90;;;;;;5013359;28;20107;-82
2020/12/16 07:43:58;;;;;;;36.75;20.45;;;2.90;99.90;;;;;;5013079;28;20041;-82
2020/12/16 07:46:24;;;;;;;43.95;22.05;;;2.80;99.90;;;;;;4995224;28;20100;-83
2020/12/16 07:48:50;;;;;;;40.50;22.52;;;2.80;99.90;;;;;;4995357;28;20492;-85
2020/12/16 07:51:18;;;;;;;49.80;24.45;;;2.80;99.90;;;;;;5013408;28;20436;-85
2020/12/16 07:53:49;;;;;;;60.90;26.08;;;2.80;99.90;;;;;;5014553;28;20384;-87
2020/12/16 07:56:16;;;;;;;62.63;27.20;;;2.80;99.90;;;;;;5013648;28;20009;-86
2020/12/16 07:58:42;;;;;;;76.45;32.25;;;2.70;99.90;;;;;;5013672;28;20028;-87
2020/12/16 08:01:19;;;;;;;116.80;41.67;;;2.60;99.90;;;;;;4995508;28;20022;-84
2020/12/16 08:03:46;;;;;;;183.05;56.90;;;2.60;99.90;;;;;;4996273;28;20021;-87
2020/12/16 08:06:13;;;;;;;178.93;54.83;;;2.60;99.90;;;;;;5014069;28;20033;-86
2020/12/16 08:08:42;;;;;;;182.75;54.40;;;2.50;99.90;;;;;;5013500;28;20112;-82
2020/12/16 08:11:15;;;;;;;192.68;56.78;;;2.50;99.90;;;;;;4995219;28;20038;-82
2020/12/16 08:13:42;;;;;;;199.77;57.45;;;2.60;99.90;;;;;;5013073;28;20021;-83
2020/12/16 08:16:08;;;;;;;216.00;60.90;;;2.60;99.90;;;;;;5012564;28;20507;-84
2020/12/16 08:18:38;;;;;;;230.73;62.90;;;2.70;99.90;;;;;;5012968;28;20029;-85
2020/12/16 08:21:14;;;;;;;262.70;66.47;;;2.70;99.90;;;;;;4995111;28;20045;-83
2020/12/16 08:23:40;;;;;;;216.13;55.47;;;2.70;99.90;;;;;;5012458;28;20037;-84
2020/12/16 08:26:05;;;;;;;237.82;58.53;;;2.70;99.90;;;;;;5013126;28;20026;-84
2020/12/16 08:28:31;;;;;;;233.02;59.28;;;2.70;99.90;;;;;;5012331;28;20447;-84
2020/12/16 08:30:58;;;;;;;259.63;66.88;;;2.70;99.90;;;;;;5012583;28;20052;-85
2020/12/16 08:33:25;;;;;;;372.63;88.47;;;2.70;99.90;;;;;;5013397;28;20022;-84
2020/12/16 08:35:52;;;;;;;351.00;84.55;;;2.70;99.90;;;;;;5012890;28;20539;-84
2020/12/16 08:38:30;;;;;;;397.15;94.35;;;2.70;99.90;;;;;;5013900;28;20025;-83
2020/12/16 08:40:57;;;;;;;357.58;89.18;;;2.80;99.90;;;;;;5012903;28;20026;-83
2020/12/16 08:43:30;;;;;;;399.70;93.93;;;2.90;99.90;;;;;;5011114;28;20029;-74
2020/12/16 08:46:15;;;;;;;395.17;97.63;;;2.90;99.90;;;;;;5010969;28;20483;-74
2020/12/16 08:48:51;;;;;;;401.25;97.60;;;2.90;99.90;;;;;;4993658;28;20444;-84
2020/12/16 08:51:23;;;;;;;395.27;93.20;;;2.90;99.90;;;;;;5014667;28;20030;-84
2020/12/16 08:53:53;;;;;;;397.53;92.90;;;2.90;99.90;;;;;;5015636;28;20164;-83
2020/12/16 08:56:26;;;;;;;354.15;85.72;;;3.00;99.90;;;;;;4997687;28;20026;-83
2020/12/16 08:59:09;;;;;;;306.73;75.63;;;3.00;99.90;;;;;;5013614;28;20179;-83
2020/12/16 09:01:37;;;;;;;340.83;84.35;;;3.00;99.90;;;;;;5013866;28;20095;-83
2020/12/16 09:04:04;;;;;;;337.10;85.10;;;3.00;99.90;;;;;;5013115;28;20029;-83
2020/12/16 09:06:30;;;;;;;350.27;87.50;;;3.00;99.90;;;;;;5013151;28;20190;-84
2020/12/16 09:08:56;;;;;;;307.17;76.95;;;3.00;99.90;;;;;;4998136;28;20488;-84
2020/12/16 09:11:22;;;;;;;260.98;76.50;;;3.00;99.90;;;;;;4995042;28;20117;-83
2020/12/16 09:13:49;;;;;;;252.25;69.38;;;3.10;99.90;;;;;;4997563;28;20080;-83
2020/12/16 09:16:19;;;;;;;318.08;87.60;;;3.10;99.90;;;;;;5013825;28;20014;-84
2020/12/16 09:18:46;;;;;;;328.55;90.55;;;3.00;99.90;;;;;;5012837;28;20080;-85
2020/12/16 09:21:12;;;;;;;269.55;77.28;;;3.10;99.90;;;;;;5013132;28;20105;-83
2020/12/16 09:23:38;;;;;;;286.58;81.22;;;3.10;99.90;;;;;;5016693;28;20511;-82
2020/12/16 09:26:04;;;;;;;286.90;78.70;;;3.10;99.90;;;;;;5016087;28;20026;-85
2020/12/16 09:28:40;;;;;;;275.42;74.55;;;3.10;99.90;;;;;;5013463;28;20135;-85
2020/12/16 09:31:16;;;;;;;278.50;77.75;;;3.10;99.90;;;;;;5012837;28;20045;-84
2020/12/16 09:33:55;;;;;;;291.75;74.60;;;3.00;99.90;;;;;;5014096;28;20487;-84
2020/12/16 09:36:27;;;;;;;199.85;60.03;;;3.00;99.90;;;;;;4995692;28;20018;-82
2020/12/16 09:39:07;;;;;;;132.95;48.17;;;3.00;99.90;;;;;;5012873;28;20017;-83
2020/12/16 09:41:50;;;;;;;122.32;45.70;;;3.10;99.90;;;;;;5012921;28;20018;-83
2020/12/16 09:44:27;;;;;;;127.60;50.60;;;3.10;99.90;;;;;;5013239;28;20053;-84
2020/12/16 09:46:53;;;;;;;123.63;46.55;;;3.10;99.90;;;;;;5012361;28;20399;-83
2020/12/16 09:49:20;;;;;;;86.85;33.05;;;3.10;99.90;;;;;;4999750;28;20380;-84
2020/12/16 09:51:46;;;;;;;84.32;32.67;;;3.00;99.90;;;;;;5016517;28;20423;-84
2020/12/16 09:54:26;;;;;;;88.57;33.20;;;3.00;99.90;;;;;;4998252;28;20030;-84
2020/12/16 09:56:52;;;;;;;76.32;31.77;;;3.10;99.90;;;;;;5016243;28;20097;-84
2020/12/16 09:59:19;;;;;;;74.97;29.63;;;3.10;99.90;;;;;;5018477;28;20056;-85
2020/12/16 10:01:48;;;;;;;69.85;29.40;;;3.20;99.90;;;;;;5020288;28;20040;-84
2020/12/16 10:04:14;;;;;;;71.05;28.15;;;3.20;99.90;;;;;;5001533;28;20022;-84
2020/12/16 10:06:39;;;;;;;72.00;28.30;;;3.20;99.90;;;;;;5000257;28;20033;-85
2020/12/16 10:09:08;;;;;;;65.43;27.17;;;3.20;99.90;;;;;;5020623;28;20038;-85
2020/12/16 10:11:34;;;;;;;66.63;27.02;;;3.20;99.90;;;;;;5019801;28;20030;-83
2020/12/16 10:14:00;;;;;;;65.80;26.98;;;3.20;99.90;;;;;;5016781;28;20425;-83
2020/12/16 10:16:39;;;;;;;62.47;25.30;;;3.20;99.90;;;;;;4999105;28;20412;-85
2020/12/16 10:19:04;;;;;;;65.95;26.70;;;3.20;99.90;;;;;;5016192;28;20030;-84
2020/12/16 10:21:30;;;;;;;58.05;24.38;;;3.30;99.90;;;;;;5017957;28;20173;-85
2020/12/16 10:23:56;;;;;;;50.25;22.88;;;3.30;99.90;;;;;;5015944;28;20053;-75
2020/12/16 10:26:21;;;;;;;52.83;23.92;;;3.30;99.90;;;;;;5014180;28;20452;-75
2020/12/16 10:28:47;;;;;;;51.03;24.35;;;3.30;99.90;;;;;;5014084;28;20038;-75
2020/12/16 10:31:15;;;;;;;57.90;23.45;;;3.30;99.90;;;;;;5013817;28;20206;-76
2020/12/16 10:33:40;;;;;;;43.45;20.38;;;3.40;99.90;;;;;;5013862;28;20058;-75
2020/12/16 10:36:06;;;;;;;42.22;20.58;;;3.40;99.90;;;;;;4995592;28;20037;-75
2020/12/16 10:38:32;;;;;;;44.45;20.58;;;3.30;99.90;;;;;;5013580;28;20057;-76
2020/12/16 10:40:57;;;;;;;37.05;19.73;;;3.40;99.90;;;;;;5013772;28;20377;-74
2020/12/16 10:43:23;;;;;;;55.85;28.52;;;3.40;99.90;;;;;;5013531;28;20108;-76
2020/12/16 10:45:49;;;;;;;41.40;21.95;;;3.40;99.90;;;;;;4995730;28;20050;-75
2020/12/16 10:48:15;;;;;;;41.97;19.88;;;3.40;99.90;;;;;;5013278;28;20054;-75
2020/12/16 10:50:40;;;;;;;35.83;17.40;;;3.40;99.90;;;;;;5013559;28;20030;-75
2020/12/16 10:53:06;;;;;;;39.00;18.13;;;3.40;99.90;;;;;;5013226;28;20049;-75
2020/12/16 10:55:32;;;;;;;33.13;18.25;;;3.30;99.90;;;;;;5013000;28;20022;-77
2020/12/16 10:57:58;;;;;;;36.78;17.90;;;3.40;99.90;;;;;;5013277;28;20110;-75
2020/12/16 11:00:24;;;;;;;33.25;18.83;;;3.30;99.90;;;;;;4995278;28;20542;-77
2020/12/16 11:02:50;;;;;;;35.63;17.95;;;3.20;99.90;;;;;;5013386;28;20430;-76
2020/12/16 11:05:15;;;;;;;32.05;16.92;;;3.20;99.90;;;;;;5013445;28;20033;-77
2020/12/16 11:07:41;;;;;;;32.58;16.75;;;3.20;99.90;;;;;;5012474;28;20037;-77
2020/12/16 11:10:07;;;;;;;29.83;16.27;;;3.20;99.90;;;;;;5012482;28;20034;-76
2020/12/16 11:12:33;;;;;;;27.35;15.02;;;3.10;99.90;;;;;;5012687;28;20034;-77
2020/12/16 11:14:58;;;;;;;25.80;13.65;;;3.10;99.90;;;;;;5012105;28;20501;-77
2020/12/16 11:17:27;;;;;;;25.60;14.10;;;3.10;99.90;;;;;;5013052;28;20033;-78
2020/12/16 11:19:54;;;;;;;27.52;14.75;;;3.10;99.90;;;;;;4979011;28;20045;-76
2020/12/16 11:22:20;;;;;;;31.95;15.73;;;3.10;99.90;;;;;;5012653;28;20109;-78
2020/12/16 11:24:47;;;;;;;28.10;16.13;;;3.10;99.90;;;;;;5012331;28;20066;-78
2020/12/16 11:27:13;;;;;;;28.80;16.02;;;3.10;99.90;;;;;;5012398;28;20061;-78
2020/12/16 11:29:39;;;;;;;26.10;14.05;;;3.10;99.90;;;;;;5012831;28;20542;-77
2020/12/16 11:32:05;;;;;;;30.63;16.25;;;3.10;99.90;;;;;;5013424;28;20025;-78
2020/12/16 11:34:34;;;;;;;26.80;14.95;;;3.00;99.90;;;;;;5011866;28;20364;-79
2020/12/16 11:37:01;;;;;;;26.30;14.55;;;2.90;99.90;;;;;;4993751;28;20091;-77
2020/12/16 11:39:27;;;;;;;26.33;15.02;;;2.90;99.90;;;;;;4994109;28;20030;-77
2020/12/16 11:41:56;;;;;;;25.45;15.02;;;3.00;99.90;;;;;;5012229;28;20034;-77
2020/12/16 11:44:24;;;;;;;28.77;17.25;;;3.00;99.90;;;;;;5011737;28;20026;-77
2020/12/16 11:46:51;;;;;;;29.73;14.82;;;3.00;99.90;;;;;;5012060;28;20058;-75
2020/12/16 11:49:17;;;;;;;32.78;14.63;;;3.00;99.90;;;;;;4994411;28;20155;-86
2020/12/16 11:51:43;;;;;;;25.83;13.82;;;3.00;99.90;;;;;;5017600;28;20025;-88
2020/12/16 11:54:09;;;;;;;24.33;12.55;;;3.00;99.90;;;;;;5013308;28;20095;-85
2020/12/16 11:56:35;;;;;;;30.50;14.40;;;3.00;99.90;;;;;;4995721;28;20037;-85
2020/12/16 11:59:01;;;;;;;28.00;15.02;;;3.00;99.90;;;;;;5013706;28;20044;-86
2020/12/16 12:01:27;;;;;;;29.92;15.07;;;3.00;99.90;;;;;;5013517;28;20030;-86
2020/12/16 12:03:53;;;;;;;32.13;15.80;;;3.00;99.90;;;;;;5013338;28;20341;-85
2020/12/16 12:06:31;;;;;;;31.83;15.73;;;3.00;99.90;;;;;;4996371;28;20034;-84
2020/12/16 12:08:57;;;;;;;35.05;18.20;;;3.00;99.90;;;;;;4994231;28;20488;-77
2020/12/16 12:11:23;;;;;;;39.47;17.98;;;3.00;99.90;;;;;;5010794;28;20057;-76
2020/12/16 12:13:48;;;;;;;37.17;17.58;;;3.00;99.90;;;;;;5010604;28;20372;-76
2020/12/16 12:16:15;;;;;;;33.22;16.35;;;3.00;99.90;;;;;;5010934;28;20028;-77
2020/12/16 12:18:43;;;;;;;32.35;17.48;;;3.00;99.90;;;;;;4993076;28;20033;-77
2020/12/16 12:21:11;;;;;;;35.78;16.80;;;3.00;99.90;;;;;;4994347;28;20115;-77
2020/12/16 12:23:37;;;;;;;29.50;15.77;;;3.00;99.90;;;;;;4993265;28;20033;-77
2020/12/16 12:26:04;;;;;;;28.23;15.43;;;3.00;99.90;;;;;;5010563;28;20032;-76
2020/12/16 12:28:30;;;;;;;29.13;15.50;;;3.00;99.90;;;;;;5010848;28;20085;-77
2020/12/16 12:30:56;;;;;;;27.92;15.02;;;2.90;99.90;;;;;;5010694;28;20088;-77
2020/12/16 12:33:21;;;;;;;30.85;15.73;;;2.90;99.90;;;;;;5010975;28;20029;-77
2020/12/16 12:35:47;;;;;;;28.58;14.10;;;2.90;99.90;;;;;;5010293;28;20033;-76
2020/12/16 12:38:13;;;;;;;24.77;13.77;;;2.90;99.90;;;;;;5010914;28;20084;-76
2020/12/16 12:40:45;;;;;;;26.38;14.40;;;2.90;99.90;;;;;;5012304;28;20030;-77